Ancona, IL

11:49 PM CST on February 08, 2016 (GMT -0600)
APRSWXNET | | Change Station
CLOSE
Current Station
Personal Weather Station
Location: Streator, IL
Elevation: 557 ft
Nearby Weather Stations
Active Advisory: Special Statement

Elev 557 ft 41.13 °N, 88.85 °W | Updated 33 minutes ago

Overcast
Overcast
20 °F
Feels Like 13 °F
N
5
Wind Variable Wind from NW
Gusts 13.0 mph

Today
High -- | Low -- °F
--% Chance of Precip.
Yesterday
High -- | Low -- °F
Precip. -- in
Pressure 29.80 in
Visibility 7.0 miles
Clouds Mostly Cloudy 1900 ft
Mostly Cloudy 2600 ft
Overcast 3100 ft
Windchill 13 °F
Dew Point 15 °F
Humidity 82%
Rainfall in
Snow Depth Not available.
6:59 AM 5:20 PM
New Moon, 1% visible
METAR KPNT 090535Z AUTO 28018KT 7SM UP BKN019 BKN026 OVC031 M06/M09 A2980 RMK AO2 T10611087
Pressure 29.80 in
Visibility 7.0 miles
Clouds Mostly Cloudy 1900 ft
Mostly Cloudy 2600 ft
Overcast 3100 ft
Windchill 13 °F
Dew Point 15 °F
Humidity 82%
Rainfall in
Snow Depth Not available.
6:59 AM 5:20 PM
New Moon, 1% visible
METAR KPNT 090535Z AUTO 28018KT 7SM UP BKN019 BKN026 OVC031 M06/M09 A2980 RMK AO2 T10611087

10-Day Weather Forecast

Almanac

Astronomy

Feb. 08, 2016 Rise Set
Actual Time
Civil Twilight
Nautical Twilight
Astronomical Twilight
Moon
Length of Visible Light
Length of Day
Tomorrow will be .
, % of the Moon is Illuminated

Today's Extremes

State Highs State Lows

Community

WunderPhotos

Upload Photos

1,891,566 photos uploaded!

WunderBlog® & News

Nearby

Air Quality

  Air Quality AQ Index Pollutant
Not available.

Snow Depth

Station Depth Elevation

Earthquake Activity

City Distance Mag. Time & Date
Minimum magnitude displayed is 2.5.

Coastal Water Temperatures

Place Temperature

Stations

Nearby Weather Stations

Station Location Temp. Windchill Dew Point Humidity Wind Precip. Elev Updated Type
                   

Watches & Warnings

Special Statement
Issued: 4:07 PM EST Feb. 8, 2016 – National Weather Service

... Light snow likely tonight into early Tuesday...

Light snow is likely tonight into Tuesday morning with some minor
accumulations of an inch or so possible. Light snow will likely
have an adverse impact on the Tuesday morning rush hour.


307 PM CST Mon Feb 8 2016 /407 PM EST Mon Feb 8 2016/

... Light snow likely tonight into early Tuesday...

Light snow is likely tonight into Tuesday morning with some minor
accumulations of an inch or so possible. Light snow will likely
have an adverse impact on the Tuesday morning rush hour.